Childress, Texas
Current Conditions -  °F | °C
As of 8:53 AM on Thursday 30 Oct 2014 (Local Time) from KCDS Reporting Station
Clear Clear  
Wind Chill: 55°   Ceiling: Unl
Heat Index: 55°   Visibility: 10mi
Dew Point: 43°   Wind: 5mph
Humidity: 64%   Direction: 110°ESE
Pressure: 30.14"   Gusts: NA
Location:  34.43°N, 100.21°W
Report Text: KCDS 301353Z AUTO 11004KT 10SM CLR 13/06 A3014 RMK AO2 SLP196 T01280061
Loading
Personal Weather Stations






























Interactive Weather Map
Tropical Storm Tracking
New forecast layout! Learn more

10-Day Weather Forecast

Advertisements
Track Severe Weather on mobile